Time;durP1;ratioP1;P1;durP2;ratioP2;P2;SDS_P1;SDS_P2;PMS_P1;PMS_P2;Temp;Humidity;BMP_temperature;BMP_pressure;BME280_temperature;BME280_humidity;BME280_pressure;Samples;Min_cycle;Max_cycle;Signal;HPM_P1;HPM_P2
2023/06/02 00:01:51;;;;;;;52.20;14.15;;;16.50;99.90;;;;;;5078086;28;20387;-60
2023/06/02 00:04:26;;;;;;;45.30;13.18;;;16.60;99.90;;;;;;5074170;28;20140;-60
2023/06/02 00:06:55;;;;;;;41.05;12.40;;;16.60;99.90;;;;;;5078651;28;20107;-61
2023/06/02 00:09:22;;;;;;;32.30;10.20;;;16.60;99.90;;;;;;5057717;28;20032;-63
2023/06/02 00:11:50;;;;;;;54.58;15.18;;;16.70;99.90;;;;;;5079750;28;20036;-61
2023/06/02 00:14:17;;;;;;;53.67;17.02;;;16.70;99.90;;;;;;5085282;28;20012;-60
2023/06/02 00:16:46;;;;;;;56.90;15.82;;;16.80;99.90;;;;;;5061963;28;20508;-63
2023/06/02 00:19:14;;;;;;;65.43;18.10;;;16.80;99.90;;;;;;5083031;28;20377;-59
2023/06/02 00:21:45;;;;;;;50.85;12.73;;;16.90;99.90;;;;;;5070256;28;20588;-60
2023/06/02 00:24:13;;;;;;;35.17;11.15;;;17.00;99.90;;;;;;5074349;28;20503;-61
2023/06/02 00:26:41;;;;;;;33.58;8.18;;;17.20;99.90;;;;;;5080002;28;20113;-60
2023/06/02 00:29:08;;;;;;;27.92;8.07;;;17.30;99.90;;;;;;5084201;28;20031;-60
2023/06/02 00:31:36;;;;;;;30.98;7.55;;;17.40;99.90;;;;;;5083414;28;20019;-60
2023/06/02 00:34:03;;;;;;;21.45;5.90;;;17.50;99.90;;;;;;5078585;28;20107;-60
2023/06/02 00:36:31;;;;;;;31.23;7.75;;;17.80;99.90;;;;;;5061981;28;20396;-60
2023/06/02 00:38:58;;;;;;;33.10;8.02;;;17.80;99.90;;;;;;5058097;28;20032;-60
2023/06/02 00:41:26;;;;;;;24.95;5.97;;;17.90;99.90;;;;;;5073151;28;20016;-60
2023/06/02 00:43:54;;;;;;;39.42;6.93;;;17.90;99.90;;;;;;5081177;28;20028;-61
2023/06/02 00:46:21;;;;;;;25.23;5.45;;;17.90;99.90;;;;;;5074283;28;20053;-61
2023/06/02 00:48:50;;;;;;;23.10;5.50;;;17.90;99.90;;;;;;5085253;28;20036;-60
2023/06/02 00:51:21;;;;;;;16.92;5.78;;;17.90;99.90;;;;;;5080034;28;20103;-60
2023/06/02 00:53:48;;;;;;;26.48;7.30;;;18.00;99.90;;;;;;5075986;28;20141;-60
2023/06/02 00:56:17;;;;;;;27.23;6.57;;;18.10;99.90;;;;;;5084549;28;20072;-61
2023/06/02 00:58:45;;;;;;;26.48;7.07;;;18.10;99.90;;;;;;5072048;28;20035;-60
2023/06/02 01:01:13;;;;;;;20.30;6.22;;;18.20;99.90;;;;;;5079799;28;20622;-61
2023/06/02 01:03:43;;;;;;;18.33;5.40;;;18.30;99.90;;;;;;5071995;28;20032;-60
2023/06/02 01:06:23;;;;;;;22.05;5.80;;;18.40;99.90;;;;;;5080336;28;20074;-60
2023/06/02 01:08:52;;;;;;;17.85;5.28;;;18.40;99.90;;;;;;5082134;28;20027;-61
2023/06/02 01:11:20;;;;;;;23.67;4.85;;;18.50;99.90;;;;;;5099730;28;20028;-61
2023/06/02 01:13:49;;;;;;;26.00;5.35;;;18.50;99.90;;;;;;5080889;28;20032;-60
2023/06/02 01:16:17;;;;;;;22.92;5.45;;;18.50;99.90;;;;;;5074863;28;20090;-62
2023/06/02 01:18:46;;;;;;;22.55;4.90;;;18.60;99.90;;;;;;5070606;28;20060;-61
2023/06/02 01:21:23;;;;;;;19.30;5.38;;;18.70;99.90;;;;;;5081637;28;20085;-62
2023/06/02 01:23:57;;;;;;;17.55;5.47;;;18.80;99.90;;;;;;5062831;28;20051;-62
2023/06/02 01:26:25;;;;;;;28.85;7.22;;;18.80;99.90;;;;;;5053099;28;20024;-66
2023/06/02 01:28:52;;;;;;;21.00;5.47;;;18.90;99.90;;;;;;5062877;28;20032;-61
2023/06/02 01:31:27;;;;;;;19.27;4.20;;;19.10;99.90;;;;;;5057221;28;20038;-62
2023/06/02 01:34:13;;;;;;;17.58;4.30;;;19.30;99.90;;;;;;5080542;28;20028;-61
2023/06/02 01:36:43;;;;;;;20.40;5.28;;;19.40;99.90;;;;;;5072617;28;20100;-61
2023/06/02 01:39:12;;;;;;;15.80;4.47;;;19.30;99.90;;;;;;5087275;28;20028;-61
2023/06/02 01:41:45;;;;;;;18.25;3.92;;;19.30;99.90;;;;;;5075500;28;20526;-61
2023/06/02 01:44:13;;;;;;;17.65;4.15;;;19.30;99.90;;;;;;5078260;28;20111;-62
2023/06/02 01:46:41;;;;;;;16.65;3.47;;;19.40;99.90;;;;;;5074334;28;20021;-59
2023/06/02 01:49:18;;;;;;;22.45;4.38;;;19.60;99.90;;;;;;5058017;28;20114;-58
2023/06/02 01:51:46;;;;;;;17.88;3.80;;;19.70;99.90;;;;;;5061928;28;20037;-59
2023/06/02 01:54:16;;;;;;;16.20;3.67;;;19.70;99.90;;;;;;5066249;28;20044;-60
2023/06/02 01:56:43;;;;;;;22.00;3.78;;;19.70;99.90;;;;;;5074699;28;20020;-59
2023/06/02 01:59:10;;;;;;;18.20;4.88;;;19.70;99.90;;;;;;5074563;28;20017;-59
2023/06/02 02:01:40;;;;;;;17.80;4.50;;;19.60;99.90;;;;;;5075339;28;20028;-60
2023/06/02 02:04:08;;;;;;;25.45;5.53;;;19.70;99.90;;;;;;5064353;28;20079;-60
2023/06/02 02:06:35;;;;;;;20.77;4.35;;;19.80;99.90;;;;;;5079873;28;20028;-59
2023/06/02 02:09:07;;;;;;;15.60;3.97;;;20.10;99.90;;;;;;5075873;28;20036;-60
2023/06/02 02:11:35;;;;;;;18.63;3.90;;;20.00;99.90;;;;;;5065214;28;20124;-59
2023/06/02 02:14:06;;;;;;;17.83;4.15;;;20.20;99.90;;;;;;5075999;28;20024;-59
2023/06/02 02:16:34;;;;;;;20.02;4.72;;;20.30;99.90;;;;;;5064538;28;20037;-58
2023/06/02 02:19:01;;;;;;;13.35;4.13;;;20.30;99.90;;;;;;5070289;28;20437;-59
2023/06/02 02:21:28;;;;;;;15.60;3.35;;;20.50;99.90;;;;;;5055813;28;20457;-59
2023/06/02 02:23:56;;;;;;;10.85;2.97;;;20.60;99.90;;;;;;5081043;28;20039;-59
2023/06/02 02:26:25;;;;;;;16.80;3.30;;;20.80;99.90;;;;;;5074958;28;20104;-58
2023/06/02 02:28:52;;;;;;;13.88;4.18;;;20.80;99.90;;;;;;5076222;28;20201;-61
2023/06/02 02:31:22;;;;;;;14.88;4.25;;;20.80;99.90;;;;;;5060937;28;20028;-59
2023/06/02 02:33:50;;;;;;;15.13;3.55;;;20.70;99.90;;;;;;5071862;28;20105;-58
2023/06/02 02:36:18;;;;;;;18.85;3.85;;;20.50;99.90;;;;;;5071323;28;20032;-58
2023/06/02 02:38:47;;;;;;;15.77;2.88;;;20.30;99.90;;;;;;5072203;28;20070;-58
2023/06/02 02:41:15;;;;;;;9.95;3.00;;;20.20;99.90;;;;;;5067568;28;20065;-58
2023/06/02 02:43:42;;;;;;;13.63;4.13;;;20.00;99.90;;;;;;5070745;28;20128;-58
2023/06/02 02:46:10;;;;;;;12.95;2.78;;;19.80;99.90;;;;;;5080148;28;20138;-58
2023/06/02 02:48:37;;;;;;;20.08;3.67;;;19.80;99.90;;;;;;5051892;28;20024;-58
2023/06/02 02:51:05;;;;;;;14.73;3.60;;;19.80;99.90;;;;;;5080697;28;20099;-58
2023/06/02 02:53:32;;;;;;;9.88;2.72;;;19.90;99.90;;;;;;5073692;28;20074;-58
2023/06/02 02:56:00;;;;;;;14.38;2.50;;;20.00;99.90;;;;;;5071608;28;20032;-58
2023/06/02 02:58:28;;;;;;;12.52;3.10;;;20.10;99.90;;;;;;5057238;28;20031;-59
2023/06/02 03:00:56;;;;;;;13.57;2.40;;;20.20;99.90;;;;;;5091390;28;20065;-59
2023/06/02 03:03:23;;;;;;;13.25;3.60;;;20.30;99.90;;;;;;5068823;28;20159;-60
2023/06/02 03:05:54;;;;;;;10.95;2.47;;;20.30;99.90;;;;;;5078522;28;20024;-60
2023/06/02 03:08:22;;;;;;;19.35;4.10;;;20.30;99.90;;;;;;5072266;28;20364;-59
2023/06/02 03:10:49;;;;;;;15.02;3.08;;;20.10;99.90;;;;;;5080059;28;20548;-61
2023/06/02 03:13:17;;;;;;;17.67;3.45;;;20.00;99.90;;;;;;5055532;28;20036;-60
2023/06/02 03:15:45;;;;;;;10.77;2.67;;;19.90;99.90;;;;;;5070777;28;20511;-60
2023/06/02 03:18:12;;;;;;;11.73;3.53;;;19.90;99.90;;;;;;5069274;28;20016;-60
2023/06/02 03:20:41;;;;;;;10.68;2.20;;;19.80;99.90;;;;;;5070379;28;20094;-60
2023/06/02 03:23:09;;;;;;;10.65;2.38;;;19.90;99.90;;;;;;5063929;28;20480;-59
2023/06/02 03:25:37;;;;;;;11.93;2.20;;;19.90;99.90;;;;;;5076866;28;20380;-59
2023/06/02 03:28:04;;;;;;;11.57;3.92;;;20.00;99.90;;;;;;5084974;28;20363;-59
2023/06/02 03:30:32;;;;;;;12.07;3.85;;;20.00;99.90;;;;;;5084763;28;20118;-59
2023/06/02 03:32:59;;;;;;;12.43;3.67;;;20.00;99.90;;;;;;5080027;28;20025;-59
2023/06/02 03:35:27;;;;;;;16.88;3.63;;;20.00;99.90;;;;;;5078682;28;20094;-60
2023/06/02 03:37:54;;;;;;;13.93;3.22;;;20.00;99.90;;;;;;5075966;28;20032;-60
2023/06/02 03:40:22;;;;;;;13.80;3.63;;;20.00;99.90;;;;;;5071946;28;20377;-59
2023/06/02 03:42:49;;;;;;;11.13;3.42;;;20.10;99.90;;;;;;5078174;28;20028;-60
2023/06/02 03:45:17;;;;;;;12.23;3.20;;;20.20;99.90;;;;;;5081927;28;20415;-60
2023/06/02 03:47:44;;;;;;;11.57;2.67;;;20.40;99.90;;;;;;5083953;28;20076;-59
2023/06/02 03:50:12;;;;;;;13.52;3.10;;;20.50;99.90;;;;;;5062695;28;20020;-59
2023/06/02 03:52:39;;;;;;;13.50;3.72;;;20.50;99.90;;;;;;5083370;28;20210;-59
2023/06/02 03:55:07;;;;;;;19.38;3.25;;;20.60;99.90;;;;;;5073265;28;20024;-58
2023/06/02 03:57:35;;;;;;;10.98;4.07;;;20.70;99.90;;;;;;5059665;28;20028;-60
2023/06/02 04:00:04;;;;;;;11.02;2.83;;;20.70;99.90;;;;;;5077875;28;20074;-59
2023/06/02 04:02:31;;;;;;;10.40;2.70;;;20.80;99.90;;;;;;5082305;28;20389;-61
2023/06/02 04:04:59;;;;;;;10.35;3.03;;;20.90;99.90;;;;;;5085065;28;20084;-61
2023/06/02 04:07:27;;;;;;;10.88;3.10;;;21.00;99.90;;;;;;5080651;28;20485;-59
2023/06/02 04:09:54;;;;;;;11.98;3.08;;;20.90;99.90;;;;;;5071681;28;20025;-59
2023/06/02 04:12:22;;;;;;;17.00;3.22;;;20.90;99.90;;;;;;5075321;28;20031;-60
2023/06/02 04:14:49;;;;;;;11.45;3.53;;;20.80;99.90;;;;;;5080223;28;20504;-59
2023/06/02 04:17:17;;;;;;;17.33;3.65;;;20.80;99.90;;;;;;5056163;28;20109;-59
2023/06/02 04:19:44;;;;;;;10.27;3.13;;;20.70;99.90;;;;;;5083554;28;20045;-60
2023/06/02 04:22:12;;;;;;;8.75;3.10;;;20.70;99.90;;;;;;5071394;28;20040;-61
2023/06/02 04:24:41;;;;;;;10.35;2.97;;;20.70;99.90;;;;;;5072603;28;20028;-59
2023/06/02 04:27:08;;;;;;;18.98;5.13;;;20.70;99.90;;;;;;5057414;28;20899;-60
2023/06/02 04:29:37;;;;;;;13.05;4.18;;;20.80;99.90;;;;;;5075254;28;20024;-62
2023/06/02 04:32:05;;;;;;;14.40;3.58;;;20.90;99.90;;;;;;5084944;28;20024;-59
2023/06/02 04:34:32;;;;;;;10.50;3.38;;;20.90;99.90;;;;;;5071625;28;20385;-60
2023/06/02 04:37:00;;;;;;;11.77;4.80;;;20.90;99.90;;;;;;5081555;28;20508;-60
2023/06/02 04:39:29;;;;;;;12.63;2.85;;;20.90;99.90;;;;;;5079054;28;20031;-60
2023/06/02 04:41:57;;;;;;;10.68;2.90;;;20.90;99.90;;;;;;5060637;28;20396;-61
2023/06/02 04:44:25;;;;;;;7.93;3.10;;;21.00;99.90;;;;;;5062757;28;20034;-60
2023/06/02 04:46:52;;;;;;;8.35;3.13;;;21.00;99.90;;;;;;5066519;28;20568;-62
2023/06/02 04:49:20;;;;;;;8.27;2.58;;;20.90;99.90;;;;;;5089376;28;20040;-58
2023/06/02 04:51:47;;;;;;;11.10;3.42;;;20.90;99.90;;;;;;5082015;28;20500;-53
2023/06/02 04:54:15;;;;;;;10.15;3.13;;;20.90;99.90;;;;;;5073407;28;20094;-51
2023/06/02 04:56:42;;;;;;;14.05;3.50;;;20.90;99.90;;;;;;5078753;28;20081;-54
2023/06/02 04:59:11;;;;;;;9.98;2.97;;;20.90;99.90;;;;;;5077707;28;20031;-54
2023/06/02 05:01:39;;;;;;;8.57;2.65;;;20.90;99.90;;;;;;5078809;28;20036;-59
2023/06/02 05:04:07;;;;;;;6.90;2.53;;;20.90;99.90;;;;;;5084863;28;20027;-57
2023/06/02 05:06:34;;;;;;;10.63;2.90;;;20.80;99.90;;;;;;5083429;28;20030;-53
2023/06/02 05:09:05;;;;;;;7.20;2.85;;;20.70;99.90;;;;;;5081908;28;20552;-57
2023/06/02 05:11:32;;;;;;;11.05;2.78;;;20.60;99.90;;;;;;5077364;28;20423;-56
2023/06/02 05:14:00;;;;;;;11.35;3.83;;;20.60;99.90;;;;;;5081203;28;20028;-56
2023/06/02 05:16:29;;;;;;;8.95;3.60;;;20.60;99.90;;;;;;5077668;28;20134;-57
2023/06/02 05:18:58;;;;;;;9.55;2.53;;;20.60;99.90;;;;;;5073528;28;20108;-58
2023/06/02 05:21:25;;;;;;;10.95;2.80;;;20.50;99.90;;;;;;5075018;28;20108;-56
2023/06/02 05:23:52;;;;;;;8.43;2.88;;;20.50;99.90;;;;;;5073360;28;20088;-62
2023/06/02 05:26:20;;;;;;;6.30;3.03;;;20.50;99.90;;;;;;5082554;28;20024;-55
2023/06/02 05:28:50;;;;;;;11.82;2.58;;;20.50;99.90;;;;;;5082210;28;20029;-56
2023/06/02 05:31:18;;;;;;;10.68;2.75;;;20.50;99.90;;;;;;5082892;28;20016;-55
2023/06/02 05:33:46;;;;;;;8.15;2.13;;;20.50;99.90;;;;;;5078915;28;20107;-54
2023/06/02 05:36:13;;;;;;;11.73;2.78;;;20.50;99.90;;;;;;5080081;28;20028;-55
2023/06/02 05:38:44;;;;;;;9.38;2.88;;;20.50;99.90;;;;;;5073734;28;20029;-57
2023/06/02 05:41:12;;;;;;;7.03;2.92;;;20.50;99.90;;;;;;5084863;28;20518;-54
2023/06/02 05:43:40;;;;;;;9.75;3.70;;;20.40;99.90;;;;;;5085744;28;20032;-50
2023/06/02 05:46:07;;;;;;;9.63;2.97;;;20.40;99.90;;;;;;5073373;28;20020;-53
2023/06/02 05:48:35;;;;;;;10.70;2.85;;;20.40;99.90;;;;;;5068901;28;20477;-49
2023/06/02 05:51:02;;;;;;;10.68;2.78;;;20.40;99.90;;;;;;5060086;28;20454;-50
2023/06/02 05:53:30;;;;;;;11.48;3.15;;;20.40;99.90;;;;;;5079903;28;20048;-54
2023/06/02 05:55:57;;;;;;;11.32;3.55;;;20.40;99.90;;;;;;5073331;28;20100;-54
2023/06/02 05:58:25;;;;;;;9.98;3.05;;;20.50;99.90;;;;;;5076123;28;20025;-54
2023/06/02 06:00:52;;;;;;;9.05;2.55;;;20.50;99.90;;;;;;5083378;28;20059;-55
2023/06/02 06:03:20;;;;;;;7.80;2.58;;;20.40;99.90;;;;;;5056298;28;20105;-54
2023/06/02 06:05:47;;;;;;;10.55;3.08;;;20.40;99.90;;;;;;5072028;28;20373;-59
2023/06/02 06:08:14;;;;;;;7.22;3.38;;;20.30;99.90;;;;;;5090771;28;20047;-60
2023/06/02 06:10:42;;;;;;;9.30;2.70;;;20.10;99.90;;;;;;5085624;28;20020;-59
2023/06/02 06:13:10;;;;;;;8.48;3.28;;;20.00;99.90;;;;;;5075864;28;20082;-62
2023/06/02 06:15:37;;;;;;;11.10;3.63;;;19.80;99.90;;;;;;5058866;28;20055;-61
2023/06/02 06:18:05;;;;;;;9.57;2.67;;;19.70;99.90;;;;;;5077674;28;20135;-61
2023/06/02 06:20:32;;;;;;;8.43;3.10;;;19.50;99.90;;;;;;5052597;28;20023;-62
2023/06/02 06:23:00;;;;;;;9.60;2.55;;;19.40;99.90;;;;;;5079201;28;20114;-62
2023/06/02 06:25:27;;;;;;;13.70;3.10;;;19.20;99.90;;;;;;5079435;28;20027;-62
2023/06/02 06:27:56;;;;;;;12.48;3.67;;;19.10;99.90;;;;;;5082459;28;20774;-62
2023/06/02 06:30:23;;;;;;;8.35;2.53;;;19.00;99.90;;;;;;5100144;28;20104;-62
2023/06/02 06:32:51;;;;;;;9.45;2.88;;;18.90;99.90;;;;;;5076618;28;20075;-61
2023/06/02 06:35:18;;;;;;;8.00;2.70;;;18.70;99.90;;;;;;5100285;28;20051;-61
2023/06/02 06:37:45;;;;;;;12.52;2.90;;;18.60;99.90;;;;;;5074864;28;20028;-62
2023/06/02 06:40:13;;;;;;;8.00;3.17;;;18.50;99.90;;;;;;5104187;28;20025;-59
2023/06/02 06:42:40;;;;;;;9.70;3.05;;;18.30;99.90;;;;;;5066572;28;20149;-60
2023/06/02 06:45:08;;;;;;;8.93;3.03;;;18.20;99.90;;;;;;5080958;28;20024;-60
2023/06/02 06:47:36;;;;;;;13.15;4.15;;;18.00;99.90;;;;;;5060158;28;20036;-60
2023/06/02 06:50:03;;;;;;;11.25;3.67;;;17.90;99.90;;;;;;5081839;28;20486;-59
2023/06/02 06:52:31;;;;;;;18.67;4.32;;;17.70;99.90;;;;;;5094429;28;20044;-59
2023/06/02 06:54:58;;;;;;;11.88;4.00;;;17.60;99.90;;;;;;5073196;28;20028;-59
2023/06/02 06:57:26;;;;;;;15.02;4.80;;;17.40;99.90;;;;;;5074905;28;20680;-59
2023/06/02 06:59:54;;;;;;;7.70;4.70;;;17.30;99.90;;;;;;5069370;28;20035;-59
2023/06/02 07:02:21;;;;;;;12.18;4.18;;;17.20;99.90;;;;;;5068419;28;20054;-59
2023/06/02 07:04:49;;;;;;;13.93;4.07;;;17.10;99.90;;;;;;5086994;28;20081;-59
2023/06/02 07:07:16;;;;;;;14.07;6.70;;;17.00;99.90;;;;;;5073984;28;20381;-60
2023/06/02 07:09:44;;;;;;;11.30;5.07;;;17.00;99.90;;;;;;5073890;28;20048;-59
2023/06/02 07:12:12;;;;;;;19.58;6.93;;;17.00;99.90;;;;;;5069120;28;20054;-60
2023/06/02 07:14:39;;;;;;;12.05;5.10;;;17.00;99.90;;;;;;5072073;28;20025;-60
2023/06/02 07:17:06;;;;;;;13.65;4.65;;;17.00;99.90;;;;;;5078075;28;20023;-60
2023/06/02 07:19:34;;;;;;;21.73;5.95;;;17.00;99.90;;;;;;5080462;28;20476;-60
2023/06/02 07:22:02;;;;;;;21.50;5.20;;;17.00;99.90;;;;;;5082096;28;20032;-59
2023/06/02 07:24:29;;;;;;;17.58;4.82;;;17.00;99.90;;;;;;5076127;28;20036;-58
2023/06/02 07:26:57;;;;;;;18.33;5.53;;;17.00;99.90;;;;;;5077701;28;20032;-60
2023/06/02 07:29:25;;;;;;;22.20;6.68;;;16.80;99.90;;;;;;5077758;28;20028;-59
2023/06/02 07:31:52;;;;;;;20.27;4.90;;;16.90;99.90;;;;;;5072565;28;20028;-64
2023/06/02 07:34:20;;;;;;;27.73;6.85;;;16.80;99.90;;;;;;5074871;28;20481;-59
2023/06/02 07:36:49;;;;;;;21.02;5.88;;;16.80;99.90;;;;;;5077320;28;20362;-59
2023/06/02 07:39:17;;;;;;;22.58;5.93;;;16.80;99.90;;;;;;5073290;28;20074;-60
2023/06/02 07:41:45;;;;;;;32.80;6.85;;;16.70;99.90;;;;;;5074304;28;20036;-58
2023/06/02 07:44:14;;;;;;;21.08;5.60;;;16.60;99.90;;;;;;5073650;28;20028;-59
2023/06/02 07:46:43;;;;;;;32.08;7.30;;;16.40;99.90;;;;;;5071360;28;20021;-59
2023/06/02 07:49:11;;;;;;;28.02;7.30;;;16.30;99.90;;;;;;5070764;28;20059;-59
2023/06/02 07:51:39;;;;;;;28.90;6.28;;;16.20;99.90;;;;;;5073412;28;20393;-59
2023/06/02 07:54:07;;;;;;;20.08;6.10;;;16.10;99.90;;;;;;5087074;28;20093;-58
2023/06/02 07:56:34;;;;;;;26.90;6.00;;;16.00;99.90;;;;;;5086482;28;20024;-59
2023/06/02 07:59:02;;;;;;;22.05;6.20;;;16.00;99.90;;;;;;5080485;28;20025;-59
2023/06/02 08:01:29;;;;;;;24.48;5.72;;;16.00;99.90;;;;;;5069528;28;20032;-58
2023/06/02 08:03:57;;;;;;;31.00;6.47;;;16.00;99.90;;;;;;5073630;28;20039;-59
2023/06/02 08:06:24;;;;;;;25.27;5.57;;;16.00;99.90;;;;;;5069512;28;20104;-58
2023/06/02 08:08:52;;;;;;;25.70;6.32;;;15.90;99.90;;;;;;5067311;28;20039;-59
2023/06/02 08:11:19;;;;;;;26.50;7.03;;;15.90;99.90;;;;;;5067459;28;20116;-59
2023/06/02 08:13:47;;;;;;;28.50;6.32;;;15.90;99.90;;;;;;5051843;28;20033;-58
2023/06/02 08:16:14;;;;;;;19.27;5.47;;;16.00;99.90;;;;;;5069995;28;20020;-59
2023/06/02 08:18:41;;;;;;;21.80;6.30;;;16.10;99.90;;;;;;5080916;28;20055;-59
2023/06/02 08:21:09;;;;;;;28.48;6.88;;;16.10;99.90;;;;;;5083032;28;20027;-59
2023/06/02 08:23:36;;;;;;;22.65;5.43;;;16.20;99.90;;;;;;5077588;28;20400;-59
2023/06/02 08:26:04;;;;;;;19.02;5.13;;;16.20;99.90;;;;;;5083344;28;20089;-59
2023/06/02 08:28:33;;;;;;;26.65;6.88;;;16.10;99.90;;;;;;5071543;28;20032;-57
2023/06/02 08:31:01;;;;;;;32.97;6.13;;;16.10;99.90;;;;;;5087571;28;20024;-52
2023/06/02 08:33:33;;;;;;;23.13;7.43;;;16.10;99.90;;;;;;5085738;28;20033;-51
2023/06/02 08:36:02;;;;;;;23.00;7.13;;;16.10;99.90;;;;;;5072528;28;20546;-59
2023/06/02 08:38:33;;;;;;;34.67;6.40;;;16.00;99.90;;;;;;5087334;28;20027;-59
2023/06/02 08:41:01;;;;;;;24.25;5.50;;;16.00;99.90;;;;;;5092416;28;20392;-59
2023/06/02 08:43:28;;;;;;;25.83;5.78;;;15.90;99.90;;;;;;5088563;28;20407;-58
2023/06/02 08:46:00;;;;;;;16.50;5.35;;;15.70;99.90;;;;;;5071823;28;20528;-60
2023/06/02 08:48:29;;;;;;;25.60;5.70;;;15.70;99.90;;;;;;5070898;28;20033;-60
2023/06/02 08:50:58;;;;;;;31.30;5.85;;;15.70;99.90;;;;;;5052847;28;20020;-59
2023/06/02 08:53:25;;;;;;;27.65;6.28;;;15.60;99.90;;;;;;5073933;28;20048;-59
2023/06/02 08:55:53;;;;;;;26.65;7.60;;;15.60;99.90;;;;;;5091477;28;20023;-59
2023/06/02 08:58:21;;;;;;;28.27;5.82;;;15.60;99.90;;;;;;5084475;28;20025;-59
2023/06/02 09:00:49;;;;;;;23.67;5.75;;;15.50;99.90;;;;;;5070365;28;20044;-59
2023/06/02 09:03:17;;;;;;;21.67;6.47;;;15.50;99.90;;;;;;5056317;28;20029;-58
2023/06/02 09:05:44;;;;;;;29.30;5.78;;;15.40;99.90;;;;;;5092591;28;20020;-58
2023/06/02 09:08:14;;;;;;;20.48;5.88;;;15.40;99.90;;;;;;5074315;28;20031;-59
2023/06/02 09:10:44;;;;;;;25.15;7.43;;;15.30;99.90;;;;;;5092671;28;20024;-58
2023/06/02 09:13:32;;;;;;;21.98;5.72;;;15.20;99.90;;;;;;5090515;28;20445;-58
2023/06/02 09:16:01;;;;;;;29.15;7.20;;;15.10;99.90;;;;;;5072397;28;20025;-59
2023/06/02 09:18:29;;;;;;;23.60;6.38;;;15.00;99.90;;;;;;5072167;28;20539;-59
2023/06/02 09:21:00;;;;;;;32.90;7.45;;;15.00;99.90;;;;;;5072212;28;20107;-58
2023/06/02 09:23:45;;;;;;;27.13;6.70;;;15.00;99.90;;;;;;5074711;28;20178;-59
2023/06/02 09:26:28;;;;;;;26.33;7.63;;;15.00;99.90;;;;;;5092085;28;20027;-58
2023/06/02 09:29:10;;;;;;;26.60;6.45;;;15.00;99.90;;;;;;5092270;28;20482;-58
2023/06/02 09:31:54;;;;;;;27.05;8.27;;;14.90;99.90;;;;;;5092217;28;20027;-59
2023/06/02 09:34:34;;;;;;;23.15;6.03;;;14.90;99.90;;;;;;5082489;28;20354;-59
2023/06/02 09:37:23;;;;;;;29.77;7.05;;;14.80;99.90;;;;;;5055419;28;20033;-59
2023/06/02 09:39:53;;;;;;;20.92;6.53;;;14.80;99.90;;;;;;5051980;28;20142;-59
2023/06/02 09:42:23;;;;;;;29.70;7.32;;;14.70;99.90;;;;;;5069475;28;20071;-59
2023/06/02 09:45:08;;;;;;;25.98;6.50;;;14.80;99.90;;;;;;5071322;28;20081;-59
2023/06/02 09:47:40;;;;;;;;;;;14.80;99.90;;;;;;5088852;28;20062;-59
2023/06/02 09:50:09;;;;;;;29.40;6.45;;;14.90;99.90;;;;;;5050814;28;20291;-60
2023/06/02 09:52:36;;;;;;;28.55;6.25;;;14.90;99.90;;;;;;5050753;28;20044;-59
2023/06/02 09:55:04;;;;;;;28.13;6.40;;;15.00;99.90;;;;;;5084262;28;20047;-58
2023/06/02 09:57:32;;;;;;;34.58;8.43;;;15.00;99.90;;;;;;5086947;28;20032;-58
2023/06/02 10:00:00;;;;;;;23.23;6.68;;;14.90;99.90;;;;;;5082750;28;20025;-59
2023/06/02 10:02:28;;;;;;;34.85;6.55;;;14.90;99.90;;;;;;5070015;28;20032;-59
2023/06/02 10:04:55;;;;;;;19.05;5.72;;;15.00;99.90;;;;;;5070346;28;20090;-57
2023/06/02 10:07:28;;;;;;;24.48;6.13;;;14.90;99.90;;;;;;5071847;28;20052;-61
2023/06/02 10:10:11;;;;;;;23.30;5.60;;;14.90;99.90;;;;;;5075675;28;20440;-53
2023/06/02 10:12:55;;;;;;;22.02;6.40;;;14.90;99.90;;;;;;5072948;28;20491;-50
2023/06/02 10:15:45;;;;;;;32.17;7.70;;;14.80;99.90;;;;;;5092092;28;20418;-58
2023/06/02 10:18:45;;;;;;;28.05;7.43;;;14.80;99.90;;;;;;5070480;28;20055;-57
2023/06/02 10:21:28;;;;;;;30.38;8.48;;;14.70;99.90;;;;;;5042555;28;20029;-59
2023/06/02 10:24:04;;;;;;;36.17;9.05;;;14.70;99.90;;;;;;5052957;28;20068;-59
2023/06/02 10:26:46;;;;;;;23.70;8.48;;;14.70;99.90;;;;;;5070650;28;20075;-58
2023/06/02 10:29:15;;;;;;;33.05;8.10;;;14.70;99.90;;;;;;5052914;28;20825;-57
2023/06/02 10:31:44;;;;;;;41.75;9.70;;;14.70;99.90;;;;;;5053125;28;20083;-57
2023/06/02 10:34:41;;;;;;;35.42;8.95;;;14.70;99.90;;;;;;5070903;28;20112;-57
2023/06/02 10:37:13;;;;;;;47.08;12.43;;;14.80;99.90;;;;;;5079875;28;20428;-58
2023/06/02 10:39:40;;;;;;;30.23;10.60;;;14.80;99.90;;;;;;5073727;28;20407;-57
2023/06/02 10:42:10;;;;;;;31.80;8.77;;;14.80;99.90;;;;;;5073232;28;20028;-55
2023/06/02 10:44:38;;;;;;;39.85;10.10;;;14.70;99.90;;;;;;5084919;28;20640;-53
2023/06/02 10:47:21;;;;;;;24.92;7.57;;;14.70;99.90;;;;;;5080035;28;20020;-56
2023/06/02 10:50:02;;;;;;;30.90;8.27;;;14.70;99.90;;;;;;5073244;28;20025;-55
2023/06/02 10:52:54;;;;;;;34.92;8.13;;;14.70;99.90;;;;;;5071774;28;20081;-58
2023/06/02 10:55:22;;;;;;;26.25;6.57;;;14.70;99.90;;;;;;5061423;28;20025;-58
2023/06/02 10:58:01;;;;;;;30.65;8.88;;;14.70;99.90;;;;;;5071619;28;20542;-57
2023/06/02 11:00:43;;;;;;;31.67;8.25;;;14.60;99.90;;;;;;5059437;28;20029;-56
2023/06/02 11:03:22;;;;;;;29.98;7.55;;;14.60;99.90;;;;;;5072933;28;20114;-56
2023/06/02 11:05:51;;;;;;;32.45;8.27;;;14.50;99.90;;;;;;5072659;28;20477;-56
2023/06/02 11:08:21;;;;;;;31.10;8.02;;;14.50;99.90;;;;;;5080792;28;20047;-55
2023/06/02 11:11:00;;;;;;;29.55;8.90;;;14.50;99.90;;;;;;5070422;28;20025;-58
2023/06/02 11:13:28;;;;;;;27.20;7.82;;;14.50;99.90;;;;;;5070316;28;20020;-58
2023/06/02 11:15:59;;;;;;;33.00;8.95;;;14.40;99.90;;;;;;5070161;28;20020;-53
2023/06/02 11:18:31;;;;;;;31.08;10.05;;;14.50;99.90;;;;;;5070025;28;20023;-57
2023/06/02 11:21:01;;;;;;;38.35;10.38;;;14.50;99.90;;;;;;5082842;28;20062;-57
2023/06/02 11:23:28;;;;;;;34.63;12.50;;;14.60;99.90;;;;;;5073202;28;20040;-55
2023/06/02 11:26:02;;;;;;;44.75;13.75;;;14.60;99.90;;;;;;5069757;28;20082;-57
2023/06/02 11:28:30;;;;;;;34.30;11.63;;;14.60;99.90;;;;;;5069745;28;20377;-54
2023/06/02 11:31:13;;;;;;;46.90;16.05;;;14.60;99.90;;;;;;5069930;28;20028;-56
2023/06/02 11:33:48;;;;;;;40.17;13.27;;;14.60;99.90;;;;;;5066495;28;20377;-51
2023/06/02 11:36:40;;;;;;;38.40;13.93;;;14.70;99.90;;;;;;5078080;28;20496;-51
2023/06/02 11:39:08;;;;;;;41.53;14.13;;;14.70;99.90;;;;;;5069721;28;20095;-49
2023/06/02 11:41:36;;;;;;;39.47;13.45;;;14.70;99.90;;;;;;5081180;28;20024;-48
2023/06/02 11:44:09;;;;;;;59.80;15.45;;;14.70;99.90;;;;;;5068948;28;20036;-48
2023/06/02 11:46:37;;;;;;;48.30;15.40;;;14.80;99.90;;;;;;5069011;28;20021;-53
2023/06/02 11:49:05;;;;;;;38.30;15.32;;;14.80;99.90;;;;;;5070694;28;20424;-55
2023/06/02 11:51:32;;;;;;;38.90;15.77;;;14.80;99.90;;;;;;5076891;28;20012;-53
2023/06/02 11:54:06;;;;;;;48.17;16.13;;;14.80;99.90;;;;;;5087861;28;20040;-52
2023/06/02 11:56:35;;;;;;;35.72;13.88;;;14.80;99.90;;;;;;5078959;28;20059;-55
2023/06/02 11:59:02;;;;;;;35.78;14.60;;;14.70;99.90;;;;;;5086810;28;20028;-53
2023/06/02 12:01:34;;;;;;;35.60;15.93;;;14.70;99.90;;;;;;5059928;28;20027;-52
2023/06/02 12:04:06;;;;;;;39.38;14.88;;;14.70;99.90;;;;;;5071261;28;20481;-54
2023/06/02 12:06:47;;;;;;;39.30;13.95;;;14.70;99.90;;;;;;5084913;28;20058;-49
2023/06/02 12:09:19;;;;;;;41.30;14.35;;;14.80;99.90;;;;;;5073310;28;20538;-54
2023/06/02 12:11:47;;;;;;;39.22;13.95;;;14.80;99.90;;;;;;5089405;28;20016;-53
2023/06/02 12:14:14;;;;;;;41.63;13.70;;;14.80;99.90;;;;;;5083171;28;20373;-56
2023/06/02 12:16:43;;;;;;;31.70;13.82;;;14.80;99.90;;;;;;5078636;28;20495;-54
2023/06/02 12:19:16;;;;;;;41.97;15.75;;;14.80;99.90;;;;;;5069368;28;20078;-55
2023/06/02 12:21:46;;;;;;;31.98;14.75;;;14.70;99.90;;;;;;5058781;28;20028;-51
2023/06/02 12:24:32;;;;;;;36.53;16.05;;;14.70;99.90;;;;;;5087085;28;20047;-55
2023/06/02 12:27:00;;;;;;;36.70;17.63;;;14.60;99.90;;;;;;5051033;28;20404;-51
2023/06/02 12:29:28;;;;;;;43.65;14.85;;;14.60;99.90;;;;;;5071646;28;20043;-55
2023/06/02 12:32:01;;;;;;;33.97;14.07;;;14.70;99.90;;;;;;5085062;28;20074;-53
2023/06/02 12:34:29;;;;;;;39.28;15.93;;;14.70;99.90;;;;;;5084568;28;20032;-55
2023/06/02 12:36:57;;;;;;;38.78;16.55;;;14.70;99.90;;;;;;5077831;28;20116;-53
2023/06/02 12:39:24;;;;;;;44.60;15.85;;;14.70;99.90;;;;;;5089874;28;20095;-55
2023/06/02 12:41:52;;;;;;;29.50;14.77;;;14.70;99.90;;;;;;5058449;28;20385;-54
2023/06/02 12:44:20;;;;;;;33.60;14.15;;;14.70;99.90;;;;;;5069078;28;20028;-54
2023/06/02 12:46:48;;;;;;;39.28;14.00;;;14.70;99.90;;;;;;5066927;28;20422;-53
2023/06/02 12:49:15;;;;;;;43.15;13.45;;;14.70;99.90;;;;;;5079949;28;20062;-54